Time;durP1;ratioP1;P1;durP2;ratioP2;P2;SDS_P1;SDS_P2;PMS_P1;PMS_P2;Temp;Humidity;BMP_temperature;BMP_pressure;BME280_temperature;BME280_humidity;BME280_pressure;Samples;Min_cycle;Max_cycle;Signal;HPM_P1;HPM_P2
2022/06/28 00:00:01;;;;;;;11.80;4.10;;;15.40;99.90;;;;;;5023460;28;20022;-71
2022/06/28 00:02:26;;;;;;;6.57;4.03;;;15.50;99.90;;;;;;5023734;28;20058;-73
2022/06/28 00:04:52;;;;;;;6.90;4.25;;;15.50;99.90;;;;;;5023508;28;20030;-72
2022/06/28 00:07:18;;;;;;;4.45;2.95;;;15.40;99.90;;;;;;5022678;28;20026;-71
2022/06/28 00:09:43;;;;;;;6.05;3.65;;;15.50;99.90;;;;;;5022344;28;20041;-71
2022/06/28 00:12:09;;;;;;;3.80;3.10;;;15.50;99.90;;;;;;5021921;28;20093;-72
2022/06/28 00:17:20;;;;;;;5.47;3.50;;;15.50;99.90;;;;;;5023527;28;20049;-72
2022/06/28 00:19:46;;;;;;;4.55;2.63;;;15.40;99.90;;;;;;5023760;28;20025;-71
2022/06/28 00:22:11;;;;;;;7.57;3.13;;;15.50;99.90;;;;;;5023593;28;20041;-72
2022/06/28 00:24:37;;;;;;;5.30;2.95;;;15.40;99.90;;;;;;5023704;28;20022;-73
2022/06/28 00:27:04;;;;;;;4.20;3.00;;;15.50;99.90;;;;;;5022827;28;20014;-70
2022/06/28 00:29:29;;;;;;;5.85;3.58;;;15.60;99.90;;;;;;5022888;28;20034;-73
2022/06/28 00:31:55;;;;;;;6.15;3.13;;;15.60;99.90;;;;;;5021902;28;20033;-71
2022/06/28 00:34:20;;;;;;;6.00;2.90;;;15.60;99.90;;;;;;5023345;28;20060;-71
2022/06/28 00:36:47;;;;;;;6.47;3.78;;;15.70;99.90;;;;;;5023226;28;20560;-73
2022/06/28 00:39:14;;;;;;;8.75;4.25;;;15.70;99.90;;;;;;5021299;28;20058;-71
2022/06/28 00:41:42;;;;;;;6.25;4.05;;;15.70;99.90;;;;;;5022714;28;20037;-72
2022/06/28 00:44:11;;;;;;;4.70;3.38;;;15.70;99.90;;;;;;5021809;28;20156;-71
2022/06/28 00:46:36;;;;;;;12.10;4.78;;;15.70;99.90;;;;;;5021321;28;20065;-72
2022/06/28 00:49:03;;;;;;;8.27;4.07;;;15.80;99.90;;;;;;5022985;28;20030;-71
2022/06/28 00:51:29;;;;;;;7.78;4.03;;;15.80;99.90;;;;;;5022860;28;20029;-71
2022/06/28 00:53:55;;;;;;;11.25;4.40;;;15.80;99.90;;;;;;5023368;28;20026;-70
2022/06/28 00:56:21;;;;;;;6.07;4.28;;;15.80;99.90;;;;;;5022902;28;20065;-71
2022/06/28 00:58:47;;;;;;;6.38;4.38;;;15.70;99.90;;;;;;5022694;28;20034;-72
2022/06/28 01:01:13;;;;;;;8.75;4.43;;;15.80;99.90;;;;;;5023147;28;20022;-71
2022/06/28 01:03:40;;;;;;;8.90;5.55;;;15.80;99.90;;;;;;5022833;28;20030;-72
2022/06/28 01:06:06;;;;;;;18.52;5.57;;;15.70;99.90;;;;;;5022591;28;20034;-72
2022/06/28 01:08:31;;;;;;;7.57;4.18;;;15.80;99.90;;;;;;5022571;28;20153;-71
2022/06/28 01:10:57;;;;;;;5.82;4.00;;;15.70;99.90;;;;;;5022621;28;20036;-71
2022/06/28 01:13:23;;;;;;;7.65;4.85;;;15.70;99.90;;;;;;5021778;28;20029;-74
2022/06/28 01:15:48;;;;;;;7.45;4.43;;;15.90;99.90;;;;;;5022584;28;20025;-74
2022/06/28 01:18:15;;;;;;;8.82;4.25;;;15.80;99.90;;;;;;5022450;28;20045;-72
2022/06/28 01:20:43;;;;;;;6.85;4.38;;;15.80;99.90;;;;;;5021695;28;20022;-73
2022/06/28 01:23:08;;;;;;;5.60;3.80;;;15.60;99.90;;;;;;5022838;28;20030;-72
2022/06/28 01:25:34;;;;;;;7.78;3.97;;;15.70;99.90;;;;;;5022287;28;20045;-71
2022/06/28 01:28:00;;;;;;;7.13;3.72;;;15.70;99.90;;;;;;5022147;28;20025;-74
2022/06/28 01:30:26;;;;;;;9.13;4.00;;;15.60;99.90;;;;;;5022386;28;20057;-72
2022/06/28 01:32:52;;;;;;;7.88;4.95;;;15.60;99.90;;;;;;5021079;28;20022;-73
2022/06/28 01:35:18;;;;;;;5.85;4.10;;;15.60;99.90;;;;;;5022496;28;20026;-73
2022/06/28 01:37:45;;;;;;;8.00;4.45;;;15.60;99.90;;;;;;5021509;28;20387;-73
2022/06/28 01:40:11;;;;;;;8.02;3.95;;;15.60;99.90;;;;;;5019770;28;20060;-71
2022/06/28 01:42:37;;;;;;;10.43;4.88;;;15.60;99.90;;;;;;5022304;28;20018;-73
2022/06/28 01:45:03;;;;;;;6.25;3.92;;;15.60;99.90;;;;;;5021995;28;20549;-73
2022/06/28 01:47:34;;;;;;;9.65;4.95;;;15.50;99.90;;;;;;5021909;28;20177;-73
2022/06/28 01:50:00;;;;;;;8.65;5.15;;;15.50;99.90;;;;;;5022076;28;20044;-71
2022/06/28 01:52:26;;;;;;;8.73;5.45;;;15.50;99.90;;;;;;5021303;28;20022;-72
2022/06/28 01:54:52;;;;;;;5.75;3.85;;;15.50;99.90;;;;;;5021529;28;20072;-71
2022/06/28 01:57:18;;;;;;;7.55;4.45;;;15.50;99.90;;;;;;5022059;28;20100;-75
2022/06/28 01:59:43;;;;;;;15.63;4.70;;;15.40;99.90;;;;;;5021693;28;20032;-71
2022/06/28 02:02:10;;;;;;;8.95;5.18;;;15.40;99.90;;;;;;5022007;28;20417;-73
2022/06/28 02:04:35;;;;;;;11.07;5.88;;;15.40;99.90;;;;;;5021536;28;20042;-71
2022/06/28 02:07:02;;;;;;;7.00;4.32;;;15.40;99.90;;;;;;5020527;28;20029;-71
2022/06/28 02:09:27;;;;;;;6.95;3.90;;;15.30;99.90;;;;;;5021640;28;20060;-72
2022/06/28 02:11:56;;;;;;;7.80;4.53;;;15.30;99.90;;;;;;5021530;28;20030;-71
2022/06/28 02:14:22;;;;;;;10.85;5.35;;;15.30;99.90;;;;;;5020635;28;20034;-73
2022/06/28 02:16:48;;;;;;;7.15;3.85;;;15.20;99.90;;;;;;5019785;28;20033;-70
2022/06/28 02:19:13;;;;;;;8.82;5.07;;;15.30;99.90;;;;;;5020672;28;20064;-71
2022/06/28 02:21:43;;;;;;;10.77;4.40;;;15.30;99.90;;;;;;5021673;28;20034;-72
2022/06/28 02:24:11;;;;;;;8.48;5.03;;;15.30;99.90;;;;;;5021987;28;20057;-72
2022/06/28 02:26:37;;;;;;;9.27;4.18;;;15.30;99.90;;;;;;5022129;28;20042;-71
2022/06/28 02:29:04;;;;;;;7.15;4.35;;;15.30;99.90;;;;;;5021676;28;20041;-72
2022/06/28 02:31:30;;;;;;;6.75;4.40;;;15.30;99.90;;;;;;5020969;28;20026;-72
2022/06/28 02:33:56;;;;;;;10.15;4.47;;;15.20;99.90;;;;;;5022092;28;20130;-71
2022/06/28 02:41:48;;;;;;;7.85;4.20;;;15.20;99.90;;;;;;5021215;28;20041;-71
2022/06/28 02:44:17;;;;;;;8.40;4.50;;;15.10;99.90;;;;;;5021183;28;20777;-72
2022/06/28 02:46:44;;;;;;;7.10;4.45;;;15.10;99.90;;;;;;5020809;28;20080;-72
2022/06/28 02:49:09;;;;;;;5.40;3.90;;;15.10;99.90;;;;;;5021255;28;20037;-73
2022/06/28 02:51:35;;;;;;;9.45;4.50;;;15.00;99.90;;;;;;5025479;28;20030;-71
2022/06/28 02:54:01;;;;;;;5.68;3.78;;;15.10;99.90;;;;;;5025438;28;20604;-74
2022/06/28 02:56:26;;;;;;;7.78;3.90;;;15.00;99.90;;;;;;5025071;28;20029;-72
2022/06/28 02:58:52;;;;;;;8.63;4.63;;;15.00;99.90;;;;;;5025186;28;20379;-72
2022/06/28 03:01:24;;;;;;;8.68;4.45;;;15.00;99.90;;;;;;5025118;28;20092;-72
2022/06/28 03:03:49;;;;;;;9.25;5.10;;;15.00;99.90;;;;;;5024873;28;20026;-72
2022/06/28 03:06:15;;;;;;;9.85;5.10;;;15.00;99.90;;;;;;5024353;28;20037;-71
2022/06/28 03:08:41;;;;;;;11.88;4.32;;;14.90;99.90;;;;;;5024569;28;20052;-72
2022/06/28 03:11:06;;;;;;;9.38;5.13;;;14.90;99.90;;;;;;5024992;28;20022;-70
2022/06/28 03:13:32;;;;;;;6.30;4.03;;;14.80;99.90;;;;;;5025389;28;20509;-71
2022/06/28 03:15:58;;;;;;;6.88;4.75;;;14.80;99.90;;;;;;5025200;28;20022;-71
2022/06/28 03:18:23;;;;;;;12.18;5.15;;;14.80;99.90;;;;;;5024604;28;20038;-71
2022/06/28 03:20:49;;;;;;;13.75;5.30;;;14.70;99.90;;;;;;5024665;28;20489;-72
2022/06/28 03:23:16;;;;;;;8.73;5.00;;;14.80;99.90;;;;;;5024385;28;20025;-72
2022/06/28 03:25:42;;;;;;;9.93;5.65;;;14.70;99.90;;;;;;5023565;28;20033;-73
2022/06/28 03:28:07;;;;;;;7.55;5.07;;;14.70;99.90;;;;;;5024906;28;20026;-71
2022/06/28 03:30:33;;;;;;;8.27;4.80;;;14.70;99.90;;;;;;5024498;28;20030;-71
2022/06/28 03:32:59;;;;;;;13.85;5.57;;;14.70;99.90;;;;;;5024373;28;20022;-72
2022/06/28 03:35:25;;;;;;;11.10;5.57;;;14.60;99.90;;;;;;5024636;28;20024;-71
2022/06/28 03:37:50;;;;;;;14.95;6.18;;;14.60;99.90;;;;;;5024614;28;20045;-74
2022/06/28 03:40:16;;;;;;;9.88;5.97;;;14.60;99.90;;;;;;5022707;28;20018;-72
2022/06/28 03:42:42;;;;;;;9.88;5.63;;;14.60;99.90;;;;;;5024635;28;20021;-71
2022/06/28 03:45:08;;;;;;;11.10;6.50;;;14.50;99.90;;;;;;5024393;28;20049;-71
2022/06/28 03:47:33;;;;;;;9.45;5.70;;;14.60;99.90;;;;;;5023832;28;20053;-72
2022/06/28 03:49:59;;;;;;;13.82;6.43;;;14.60;99.90;;;;;;5024176;28;20033;-71
2022/06/28 03:52:28;;;;;;;9.43;5.95;;;14.50;99.90;;;;;;5024110;28;20478;-71
2022/06/28 03:55:00;;;;;;;14.48;6.25;;;14.50;99.90;;;;;;5023882;28;20034;-72
2022/06/28 03:57:26;;;;;;;8.75;6.15;;;14.50;99.90;;;;;;5023947;28;20055;-70
2022/06/28 03:59:55;;;;;;;15.02;7.75;;;14.50;99.90;;;;;;5022265;28;20081;-72
2022/06/28 04:02:22;;;;;;;11.40;6.45;;;14.50;99.90;;;;;;5022492;28;20457;-71
2022/06/28 04:04:47;;;;;;;10.60;6.63;;;14.50;99.90;;;;;;5023783;28;20381;-71
2022/06/28 04:07:13;;;;;;;11.27;6.63;;;14.50;99.90;;;;;;5023487;28;20033;-71
2022/06/28 04:09:39;;;;;;;11.55;6.65;;;14.50;99.90;;;;;;5023718;28;20093;-70
2022/06/28 04:12:06;;;;;;;12.57;7.28;;;14.50;99.90;;;;;;5024199;28;20414;-72
2022/06/28 04:14:31;;;;;;;12.85;7.50;;;14.50;99.90;;;;;;5023609;28;20056;-70
2022/06/28 04:16:57;;;;;;;17.40;7.85;;;14.50;99.90;;;;;;5023398;28;20022;-72
2022/06/28 04:19:23;;;;;;;21.38;8.85;;;14.40;99.90;;;;;;5023637;28;20030;-71
2022/06/28 04:21:49;;;;;;;14.40;8.15;;;14.40;99.90;;;;;;5021942;28;21493;-73
2022/06/28 04:24:15;;;;;;;20.35;9.18;;;14.50;99.90;;;;;;5023874;28;20034;-73
2022/06/28 04:26:41;;;;;;;14.93;9.50;;;14.40;99.90;;;;;;5023276;28;20081;-72
2022/06/28 04:29:06;;;;;;;14.35;8.60;;;14.50;99.90;;;;;;5023029;28;20072;-71
2022/06/28 04:31:32;;;;;;;18.02;9.43;;;14.40;99.90;;;;;;5023355;28;20037;-72
2022/06/28 04:34:02;;;;;;;17.67;8.63;;;14.50;99.90;;;;;;5022834;28;20028;-71
2022/06/28 04:36:28;;;;;;;19.45;9.00;;;14.50;99.90;;;;;;5021463;28;20025;-71
2022/06/28 04:38:54;;;;;;;16.42;9.57;;;14.50;99.90;;;;;;5022956;28;20037;-72
2022/06/28 04:41:23;;;;;;;14.63;8.43;;;14.60;99.90;;;;;;5022088;28;20026;-72
2022/06/28 04:43:53;;;;;;;18.80;9.82;;;14.60;99.90;;;;;;5021917;28;20018;-71
2022/06/28 04:46:22;;;;;;;23.05;11.13;;;14.60;99.90;;;;;;5022165;28;20061;-71
2022/06/28 04:48:50;;;;;;;14.02;8.52;;;14.60;99.90;;;;;;5022198;28;20563;-72
2022/06/28 04:51:16;;;;;;;16.08;9.48;;;14.60;99.90;;;;;;5021040;28;20037;-71
2022/06/28 04:53:44;;;;;;;16.40;9.38;;;14.70;99.90;;;;;;5021773;28;20036;-70
2022/06/28 04:56:12;;;;;;;18.67;8.77;;;14.70;99.90;;;;;;5022337;28;20022;-71
2022/06/28 04:58:38;;;;;;;24.08;9.48;;;14.70;99.90;;;;;;5022475;28;20053;-71
2022/06/28 05:01:04;;;;;;;15.10;7.40;;;14.70;99.90;;;;;;5016713;28;20057;-70
2022/06/28 05:03:31;;;;;;;15.48;8.55;;;14.80;99.90;;;;;;5021199;28;20060;-71
2022/06/28 05:05:57;;;;;;;14.90;8.25;;;14.70;99.90;;;;;;5020230;28;20053;-70
2022/06/28 05:08:22;;;;;;;24.73;9.38;;;14.80;99.90;;;;;;5019962;28;20151;-71
2022/06/28 05:10:48;;;;;;;21.13;8.35;;;14.90;99.90;;;;;;5022174;28;20018;-71
2022/06/28 05:13:13;;;;;;;17.88;7.55;;;14.90;99.90;;;;;;5020169;28;20498;-72
2022/06/28 05:15:39;;;;;;;13.60;7.93;;;14.90;99.90;;;;;;5021576;28;20076;-71
2022/06/28 05:18:05;;;;;;;13.70;7.50;;;14.90;99.90;;;;;;5020852;28;20397;-72
2022/06/28 05:20:30;;;;;;;16.02;8.02;;;15.00;99.90;;;;;;5021204;28;20034;-71
2022/06/28 05:22:56;;;;;;;20.40;7.88;;;15.00;99.90;;;;;;5022068;28;20038;-71
2022/06/28 05:25:22;;;;;;;10.65;5.57;;;15.10;99.90;;;;;;5021047;28;20033;-71
2022/06/28 05:27:47;;;;;;;13.50;7.18;;;15.10;99.90;;;;;;5021149;28;20029;-72
2022/06/28 05:30:13;;;;;;;11.57;7.38;;;15.10;99.90;;;;;;5021727;28;20101;-73
2022/06/28 05:32:39;;;;;;;14.68;7.20;;;15.20;99.90;;;;;;5017929;28;20022;-72
2022/06/28 05:35:06;;;;;;;17.58;7.63;;;15.20;99.90;;;;;;5020539;28;20050;-73
2022/06/28 05:37:32;;;;;;;10.32;5.78;;;15.30;99.90;;;;;;5022098;28;20056;-71
2022/06/28 05:39:58;;;;;;;10.30;6.57;;;15.30;99.90;;;;;;5021524;28;20056;-71
2022/06/28 05:42:23;;;;;;;20.63;6.75;;;15.30;99.90;;;;;;5019182;28;20022;-73
2022/06/28 05:44:49;;;;;;;13.25;7.05;;;15.40;99.90;;;;;;5020965;28;20168;-69
2022/06/28 05:47:15;;;;;;;16.15;6.53;;;15.40;99.90;;;;;;5020726;28;20052;-71
2022/06/28 05:49:44;;;;;;;9.57;5.82;;;15.40;99.90;;;;;;5021959;28;20033;-70
2022/06/28 05:52:10;;;;;;;10.15;5.43;;;15.50;99.90;;;;;;5021300;28;20037;-72
2022/06/28 05:54:36;;;;;;;8.57;5.20;;;15.50;99.90;;;;;;5019480;28;20026;-72
2022/06/28 05:57:02;;;;;;;13.20;4.90;;;15.60;99.90;;;;;;5022173;28;20033;-71
2022/06/28 05:59:28;;;;;;;12.45;5.15;;;15.60;99.90;;;;;;5021941;28;20037;-69
2022/06/28 06:01:55;;;;;;;15.55;5.38;;;15.60;99.90;;;;;;5021724;28;20478;-72
2022/06/28 06:04:22;;;;;;;7.30;4.30;;;15.60;99.90;;;;;;5021486;28;20046;-69
2022/06/28 06:06:47;;;;;;;8.60;4.47;;;15.60;99.90;;;;;;5022033;28;20047;-72
2022/06/28 06:09:14;;;;;;;8.98;4.13;;;15.70;99.90;;;;;;5018427;28;20093;-72
2022/06/28 06:11:44;;;;;;;7.57;3.90;;;15.70;99.90;;;;;;5019644;28;20112;-71
2022/06/28 06:14:10;;;;;;;6.90;3.72;;;15.80;99.90;;;;;;5021421;28;20038;-71
2022/06/28 06:16:36;;;;;;;8.43;4.63;;;15.80;99.90;;;;;;5020808;28;20050;-72
2022/06/28 06:19:02;;;;;;;8.70;4.00;;;15.90;99.90;;;;;;5021458;28;20033;-70
2022/06/28 06:21:28;;;;;;;12.77;3.88;;;15.90;99.90;;;;;;5020201;28;20022;-71
2022/06/28 06:23:58;;;;;;;8.13;4.20;;;16.00;99.90;;;;;;5020077;28;20053;-71
2022/06/28 06:26:24;;;;;;;15.80;4.43;;;16.00;99.90;;;;;;5024881;28;20061;-72
2022/06/28 06:28:50;;;;;;;4.80;3.60;;;16.10;99.90;;;;;;5024542;28;20034;-72
2022/06/28 06:31:16;;;;;;;7.35;3.25;;;16.10;99.90;;;;;;5023705;28;20053;-72
2022/06/28 06:33:42;;;;;;;7.93;3.45;;;16.20;99.90;;;;;;5025549;28;20389;-74
2022/06/28 06:36:08;;;;;;;7.63;3.70;;;16.20;99.90;;;;;;5023616;28;20053;-72
2022/06/28 06:38:33;;;;;;;10.18;3.55;;;16.30;99.90;;;;;;5025039;28;20046;-72
2022/06/28 06:40:59;;;;;;;7.28;3.58;;;16.30;99.90;;;;;;5023472;28;20021;-69
2022/06/28 06:43:28;;;;;;;4.70;3.08;;;16.40;99.90;;;;;;5023824;28;20026;-68
2022/06/28 06:45:54;;;;;;;9.27;3.13;;;16.50;99.90;;;;;;5024028;28;20046;-69
2022/06/28 06:48:23;;;;;;;5.65;3.22;;;16.60;99.90;;;;;;5022348;28;20056;-70
2022/06/28 06:50:49;;;;;;;8.70;3.40;;;16.50;99.90;;;;;;5022875;28;20029;-69
2022/06/28 06:53:15;;;;;;;9.63;3.42;;;16.60;99.90;;;;;;5023153;28;20023;-70
2022/06/28 06:55:41;;;;;;;3.92;2.65;;;16.70;99.90;;;;;;5022174;28;20034;-70
2022/06/28 06:58:07;;;;;;;9.20;3.67;;;16.80;99.90;;;;;;5024206;28;20045;-69
2022/06/28 07:00:34;;;;;;;5.25;2.92;;;16.80;99.90;;;;;;5021881;28;20034;-69
2022/06/28 07:03:02;;;;;;;8.00;2.78;;;16.90;99.90;;;;;;5024484;28;20029;-71
2022/06/28 07:05:29;;;;;;;9.02;3.15;;;16.90;99.90;;;;;;5024815;28;20021;-69
2022/06/28 07:07:55;;;;;;;5.22;2.65;;;17.00;99.90;;;;;;5024583;28;20466;-69
2022/06/28 07:10:21;;;;;;;5.70;2.75;;;17.00;99.90;;;;;;5023461;28;20033;-68
2022/06/28 07:12:46;;;;;;;5.65;3.00;;;17.00;99.90;;;;;;5024124;28;20030;-73
2022/06/28 07:15:12;;;;;;;6.10;2.30;;;17.10;99.90;;;;;;5021689;28;20026;-70
2022/06/28 07:17:38;;;;;;;6.60;1.70;;;17.20;99.90;;;;;;5023230;28;20045;-69
2022/06/28 07:20:04;;;;;;;2.28;0.80;;;17.20;99.90;;;;;;5024389;28;20428;-69
2022/06/28 07:22:30;;;;;;;3.38;1.77;;;17.20;99.90;;;;;;5023207;28;20018;-72
2022/06/28 07:24:56;;;;;;;1.88;1.45;;;17.40;99.90;;;;;;5024183;28;20041;-70
2022/06/28 07:27:22;;;;;;;3.30;1.85;;;17.30;99.90;;;;;;5024582;28;20022;-69
2022/06/28 07:29:48;;;;;;;4.30;2.08;;;17.40;99.90;;;;;;5024477;28;20053;-69
2022/06/28 07:32:14;;;;;;;4.88;1.90;;;17.40;99.90;;;;;;5023507;28;20013;-69
2022/06/28 07:34:40;;;;;;;3.35;1.58;;;17.50;99.90;;;;;;5024148;28;20022;-70
2022/06/28 07:37:06;;;;;;;4.18;1.50;;;17.50;99.90;;;;;;5022405;28;20445;-68
2022/06/28 07:39:31;;;;;;;4.22;1.85;;;17.60;99.90;;;;;;5024294;28;20639;-68
2022/06/28 07:41:57;;;;;;;3.25;2.13;;;17.60;99.90;;;;;;5022385;28;20022;-70
2022/06/28 07:44:23;;;;;;;7.93;2.75;;;17.60;99.90;;;;;;5023268;28;20038;-69
2022/06/28 07:46:48;;;;;;;6.10;2.55;;;17.80;99.90;;;;;;5020354;28;20486;-67
2022/06/28 07:49:14;;;;;;;5.20;2.58;;;17.80;99.90;;;;;;5022590;28;20386;-71
2022/06/28 07:54:24;;;;;;;12.10;3.25;;;17.90;99.90;;;;;;5022015;28;20077;-74
2022/06/28 07:56:49;;;;;;;5.13;2.53;;;18.00;99.90;;;;;;5017314;28;20035;-70
2022/06/28 07:59:16;;;;;;;5.88;2.78;;;18.00;99.90;;;;;;5021062;28;20096;-70
2022/06/28 08:01:44;;;;;;;8.48;2.08;;;18.10;99.90;;;;;;5019363;28;20041;-69
2022/06/28 08:04:11;;;;;;;7.40;3.13;;;18.10;99.90;;;;;;5019138;28;20030;-70
2022/06/28 08:06:37;;;;;;;6.88;2.53;;;18.10;99.90;;;;;;5020984;28;20032;-70
2022/06/28 08:09:04;;;;;;;4.95;2.70;;;18.20;99.90;;;;;;5020696;28;20030;-71
2022/06/28 08:11:32;;;;;;;5.82;2.45;;;18.30;99.90;;;;;;5020142;28;20525;-68
2022/06/28 08:13:58;;;;;;;9.15;2.05;;;18.40;99.90;;;;;;5011816;28;20487;-70
2022/06/28 08:16:24;;;;;;;4.00;1.90;;;18.50;99.90;;;;;;5019591;28;20120;-70
2022/06/28 08:18:53;;;;;;;7.63;2.63;;;18.50;99.90;;;;;;5016780;28;20101;-71
2022/06/28 08:21:21;;;;;;;8.13;2.80;;;18.50;99.90;;;;;;5022330;28;21476;-69
2022/06/28 08:23:46;;;;;;;5.95;2.28;;;18.50;99.90;;;;;;5023218;28;20026;-69
2022/06/28 08:26:12;;;;;;;3.65;2.28;;;18.60;99.90;;;;;;5022038;28;20037;-72
2022/06/28 08:28:38;;;;;;;7.72;3.22;;;18.70;99.90;;;;;;5022422;28;20136;-70
2022/06/28 08:31:03;;;;;;;4.35;2.63;;;18.70;99.90;;;;;;5022253;28;20040;-69
2022/06/28 08:33:29;;;;;;;6.43;2.75;;;18.70;99.90;;;;;;5022693;28;20037;-70
2022/06/28 08:35:55;;;;;;;8.88;3.47;;;18.70;99.90;;;;;;5022817;28;20022;-70
2022/06/28 08:38:20;;;;;;;5.43;2.55;;;18.70;99.90;;;;;;5022297;28;20049;-70
2022/06/28 08:40:46;;;;;;;3.63;2.55;;;18.80;99.90;;;;;;5023092;28;20030;-71
2022/06/28 08:43:12;;;;;;;5.70;2.85;;;19.00;99.90;;;;;;5023338;28;20034;-71
2022/06/28 08:45:38;;;;;;;4.38;2.85;;;19.10;99.90;;;;;;5023109;28;20045;-69
2022/06/28 08:48:21;;;;;;;5.38;2.83;;;19.10;99.90;;;;;;5022166;28;20436;-69
2022/06/28 08:50:52;;;;;;;9.87;2.90;;;19.30;99.90;;;;;;5022147;28;20050;-68
2022/06/28 08:53:21;;;;;;;6.97;2.65;;;19.40;99.90;;;;;;5022348;28;20022;-69
2022/06/28 08:55:48;;;;;;;6.38;2.92;;;19.50;99.90;;;;;;5022092;28;20051;-70
2022/06/28 08:58:15;;;;;;;4.78;3.10;;;19.70;99.90;;;;;;5019420;28;20040;-69
2022/06/28 09:00:41;;;;;;;13.40;3.17;;;19.80;99.90;;;;;;5021143;28;20674;-69
2022/06/28 09:03:06;;;;;;;4.38;2.80;;;20.00;99.90;;;;;;5020903;28;20045;-70
2022/06/28 09:05:32;;;;;;;10.27;4.00;;;20.20;99.90;;;;;;5021439;28;20146;-71
2022/06/28 09:07:58;;;;;;;10.55;3.30;;;20.30;99.90;;;;;;5022136;28;20041;-68
2022/06/28 09:10:24;;;;;;;3.78;2.70;;;20.20;99.90;;;;;;5022489;28;20021;-68
2022/06/28 09:12:55;;;;;;;4.93;3.20;;;20.10;99.90;;;;;;5021578;28;20038;-70
2022/06/28 09:15:24;;;;;;;6.03;2.85;;;19.90;99.90;;;;;;5020282;28;20104;-69
2022/06/28 09:17:55;;;;;;;9.32;2.60;;;19.70;99.90;;;;;;5021274;28;20057;-69
2022/06/28 09:20:33;;;;;;;4.38;2.97;;;19.70;99.90;;;;;;5020860;28;20030;-68
2022/06/28 09:22:59;;;;;;;5.68;3.03;;;19.70;99.90;;;;;;5020741;28;20044;-69
2022/06/28 09:25:27;;;;;;;6.63;3.15;;;19.90;99.90;;;;;;5020895;28;20033;-69
2022/06/28 09:27:58;;;;;;;4.15;2.67;;;19.90;99.90;;;;;;5020212;28;20033;-71
2022/06/28 09:30:29;;;;;;;4.38;2.50;;;20.00;99.90;;;;;;5018804;28;20089;-69
2022/06/28 09:32:55;;;;;;;5.55;3.28;;;20.00;99.90;;;;;;5020000;28;20022;-69
2022/06/28 09:35:24;;;;;;;5.15;2.63;;;20.10;99.90;;;;;;5021328;28;20501;-71
2022/06/28 09:37:56;;;;;;;6.35;2.42;;;20.20;99.90;;;;;;5017855;28;20068;-72
2022/06/28 09:40:29;;;;;;;3.28;2.00;;;20.40;99.90;;;;;;5020590;28;20037;-70
2022/06/28 09:43:15;;;;;;;5.85;2.33;;;20.60;99.90;;;;;;5021218;28;20014;-70
2022/06/28 09:45:46;;;;;;;4.50;1.90;;;20.70;99.90;;;;;;5017653;28;20099;-69
2022/06/28 09:48:17;;;;;;;5.40;2.45;;;20.90;99.90;;;;;;5020327;28;20034;-70
2022/06/28 09:50:43;;;;;;;4.22;2.08;;;21.10;99.90;;;;;;5021036;28;20116;-73
2022/06/28 09:53:12;;;;;;;2.65;2.05;;;21.20;99.90;;;;;;5019596;28;20525;-71
2022/06/28 09:55:38;;;;;;;4.28;2.33;;;21.30;99.90;;;;;;5020853;28;20026;-70
2022/06/28 09:58:04;;;;;;;4.55;1.20;;;21.40;99.90;;;;;;5018623;28;20034;-70
2022/06/28 10:00:30;;;;;;;2.40;1.50;;;21.40;99.90;;;;;;5018749;28;20056;-71
2022/06/28 10:02:58;;;;;;;2.88;1.08;;;21.30;99.90;;;;;;5020488;28;20026;-71
2022/06/28 10:05:24;;;;;;;2.42;0.93;;;21.30;99.90;;;;;;5020063;28;20030;-73
2022/06/28 10:07:50;;;;;;;2.15;1.40;;;21.40;99.90;;;;;;5020702;28;20033;-74
2022/06/28 10:10:17;;;;;;;3.47;1.88;;;21.50;99.90;;;;;;5019690;28;20041;-70
2022/06/28 10:15:36;;;;;;;2.08;1.50;;;21.70;99.90;;;;;;5019232;28;20037;-69
2022/06/28 10:18:16;;;;;;;3.35;2.08;;;21.80;99.90;;;;;;5019337;28;20045;-68
2022/06/28 10:20:46;;;;;;;3.90;1.88;;;21.60;99.90;;;;;;5018484;28;20038;-70
2022/06/28 10:23:34;;;;;;;3.63;1.63;;;21.50;99.90;;;;;;5021603;28;20025;-71
2022/06/28 10:26:14;;;;;;;3.13;1.77;;;21.20;99.90;;;;;;5021506;28;20076;-71
2022/06/28 10:29:00;;;;;;;7.05;1.92;;;21.10;99.90;;;;;;5021344;28;20057;-72
2022/06/28 10:31:27;;;;;;;2.75;1.58;;;21.00;99.90;;;;;;5021189;28;20040;-71
2022/06/28 10:33:57;;;;;;;3.60;1.65;;;20.90;99.90;;;;;;5019541;28;20025;-69
2022/06/28 10:36:28;;;;;;;1.63;1.00;;;20.80;99.90;;;;;;5021310;28;20038;-69
2022/06/28 10:39:08;;;;;;;1.75;1.27;;;20.80;99.90;;;;;;5017858;28;20121;-72
2022/06/28 10:42:00;;;;;;;3.85;1.92;;;20.70;99.90;;;;;;5020568;28;20073;-72
2022/06/28 10:44:43;;;;;;;2.30;1.27;;;20.90;99.90;;;;;;5021433;28;20490;-70
2022/06/28 10:47:15;;;;;;;2.80;1.23;;;21.00;99.90;;;;;;5020350;28;20046;-70
2022/06/28 10:49:46;;;;;;;1.20;0.80;;;21.00;99.90;;;;;;5018941;28;20037;-71
2022/06/28 10:52:14;;;;;;;2.33;1.20;;;21.00;99.90;;;;;;5017983;28;20034;-69
2022/06/28 10:55:03;;;;;;;3.95;1.20;;;20.90;99.90;;;;;;5019052;28;20504;-69
2022/06/28 10:57:40;;;;;;;2.72;1.23;;;21.20;99.90;;;;;;5018618;28;20018;-72
2022/06/28 11:00:21;;;;;;;1.98;1.15;;;21.40;99.90;;;;;;5020036;28;20053;-71
2022/06/28 11:02:49;;;;;;;1.33;0.63;;;21.50;99.90;;;;;;5017807;28;20500;-71
2022/06/28 11:05:17;;;;;;;2.00;0.93;;;21.40;99.90;;;;;;5017668;28;20030;-72
2022/06/28 11:07:56;;;;;;;4.95;1.10;;;21.30;99.90;;;;;;5019019;28;20033;-71
2022/06/28 11:10:22;;;;;;;1.23;0.80;;;21.40;99.90;;;;;;5018871;28;20060;-69
2022/06/28 11:12:48;;;;;;;7.05;0.77;;;21.70;99.90;;;;;;5023132;28;20038;-70
2022/06/28 11:15:36;;;;;;;1.13;0.90;;;21.80;99.90;;;;;;5024689;28;20024;-71
2022/06/28 11:18:13;;;;;;;2.35;0.75;;;21.90;99.90;;;;;;5024185;28;20121;-69
2022/06/28 11:20:39;;;;;;;1.00;0.85;;;22.10;99.90;;;;;;5024811;28;20034;-69
2022/06/28 11:23:05;;;;;;;1.52;0.90;;;22.40;99.90;;;;;;5024273;28;20377;-70
2022/06/28 11:28:17;;;;;;;0.50;0.50;;;22.40;99.90;;;;;;5024989;28;20053;-69
2022/06/28 11:30:43;;;;;;;1.10;0.82;;;22.40;99.90;;;;;;5024355;28;20022;-68
2022/06/28 11:33:10;;;;;;;0.57;0.47;;;22.50;99.90;;;;;;5024148;28;20026;-70
2022/06/28 11:35:37;;;;;;;0.80;0.80;;;22.40;99.90;;;;;;5024181;28;20090;-70
2022/06/28 11:38:06;;;;;;;1.52;0.95;;;22.30;99.90;;;;;;5024158;28;20030;-69
2022/06/28 11:40:43;;;;;;;1.55;0.82;;;22.30;99.90;;;;;;5023220;28;20706;-70
2022/06/28 11:43:11;;;;;;;0.90;0.70;;;22.30;99.90;;;;;;5021655;28;20057;-70
2022/06/28 11:45:49;;;;;;;0.88;0.55;;;22.20;99.90;;;;;;5022188;28;20026;-69
2022/06/28 11:48:20;;;;;;;0.40;0.40;;;22.10;99.90;;;;;;5023135;28;20037;-69
2022/06/28 11:50:50;;;;;;;3.38;0.80;;;22.10;99.90;;;;;;5022799;28;20064;-71
2022/06/28 11:53:16;;;;;;;0.95;0.40;;;22.20;99.90;;;;;;5023232;28;20472;-69
2022/06/28 11:55:46;;;;;;;3.22;0.60;;;22.60;99.90;;;;;;5021412;28;20056;-70
2022/06/28 11:58:20;;;;;;;0.93;0.60;;;22.80;99.90;;;;;;5024042;28;20038;-69
2022/06/28 12:01:11;;;;;;;1.33;0.43;;;23.00;99.90;;;;;;5021666;28;20045;-73
2022/06/28 12:03:43;;;;;;;1.13;0.70;;;23.30;99.90;;;;;;5023405;28;20145;-70
2022/06/28 12:06:25;;;;;;;1.23;0.85;;;23.50;99.90;;;;;;5023108;28;20057;-70
2022/06/28 12:08:59;;;;;;;4.50;1.08;;;23.70;99.90;;;;;;5024254;28;20041;-70
2022/06/28 12:11:30;;;;;;;7.95;1.35;;;23.90;99.90;;;;;;5016521;28;20093;-71
2022/06/28 12:13:56;;;;;;;4.28;0.80;;;24.10;99.90;;;;;;5022606;28;20022;-70
2022/06/28 12:16:22;;;;;;;1.38;0.70;;;24.20;99.90;;;;;;5022736;28;20025;-70
2022/06/28 12:18:55;;;;;;;0.77;0.65;;;24.10;99.90;;;;;;5021757;28;20651;-71
2022/06/28 12:21:21;;;;;;;1.17;0.77;;;23.90;99.90;;;;;;5018365;28;20042;-70
2022/06/28 12:23:51;;;;;;;2.97;1.00;;;23.80;99.90;;;;;;5020763;28;20030;-71
2022/06/28 12:26:17;;;;;;;1.05;0.82;;;23.80;99.90;;;;;;5023665;28;20033;-71
2022/06/28 12:28:45;;;;;;;1.20;0.65;;;23.90;99.90;;;;;;5021492;28;20034;-71
2022/06/28 12:31:11;;;;;;;4.63;1.17;;;23.80;99.90;;;;;;5020129;28;20081;-70
2022/06/28 12:33:37;;;;;;;2.15;0.70;;;23.60;99.90;;;;;;5022514;28;20077;-69
2022/06/28 12:36:05;;;;;;;0.70;0.65;;;23.50;99.90;;;;;;5023418;28;20075;-71
2022/06/28 12:38:31;;;;;;;6.60;0.60;;;23.40;99.90;;;;;;5020447;28;20143;-70
2022/06/28 12:40:56;;;;;;;0.77;0.50;;;23.40;99.90;;;;;;5022316;28;20117;-70
2022/06/28 12:43:23;;;;;;;1.45;1.00;;;23.40;99.90;;;;;;5022825;28;20084;-70
2022/06/28 12:45:49;;;;;;;1.65;1.13;;;23.30;99.90;;;;;;5021423;28;20130;-69
2022/06/28 12:48:15;;;;;;;2.03;1.13;;;23.10;99.90;;;;;;5022458;28;20046;-69
2022/06/28 12:50:41;;;;;;;1.17;0.70;;;23.00;99.90;;;;;;5022287;28;20041;-71
2022/06/28 12:53:08;;;;;;;1.40;0.65;;;22.80;99.90;;;;;;5022532;28;20030;-69
2022/06/28 12:55:34;;;;;;;1.02;0.73;;;22.90;99.90;;;;;;5022489;28;20457;-69
2022/06/28 12:57:59;;;;;;;0.93;0.70;;;23.00;99.90;;;;;;5022577;28;20034;-71
2022/06/28 13:00:25;;;;;;;0.88;0.55;;;23.10;99.90;;;;;;5022474;28;20080;-70
2022/06/28 13:02:51;;;;;;;2.13;1.02;;;23.00;99.90;;;;;;5022630;28;20026;-73